createdAt,value
2023-05-23T00:00:51.997Z,98160.56
2023-05-23T00:01:58.521Z,98161.56
2023-05-23T00:03:22.846Z,98152.06
2023-05-23T00:04:44.392Z,98154.69
2023-05-23T00:06:08.113Z,98157.44
2023-05-23T00:07:29.387Z,98151.38
2023-05-23T00:08:50.571Z,98154.97
2023-05-23T00:10:12.252Z,98149.91
2023-05-23T00:11:32.582Z,98144.66
2023-05-23T00:12:53.806Z,98143.84
2023-05-23T00:14:15.679Z,98144.16
2023-05-23T00:15:38.880Z,98137.44
2023-05-23T00:17:00.303Z,98140.34
2023-05-23T00:18:21.835Z,98148.34
2023-05-23T00:19:45.529Z,98145.22
2023-05-23T00:21:06.184Z,98144.56
2023-05-23T00:22:27.707Z,98146.47
2023-05-23T00:23:50.458Z,98146.59
2023-05-23T00:25:11.646Z,98142.34
2023-05-23T00:26:13.519Z,98138.22
2023-05-23T00:27:21.514Z,98138.91
2023-05-23T00:28:23.427Z,98136.16
2023-05-23T00:29:26.253Z,98133.41
2023-05-23T00:30:28.694Z,98139.44
2023-05-23T00:31:32.925Z,98128.84
2023-05-23T00:32:35.611Z,98129.50
2023-05-23T00:33:38.508Z,98132.13
2023-05-23T00:34:40.387Z,98145.91
2023-05-23T00:35:43.722Z,98139.00
2023-05-23T00:36:47.746Z,98128.53
2023-05-23T00:37:51.813Z,98133.75
2023-05-23T00:38:54.251Z,98140.94
2023-05-23T00:39:57.012Z,98134.38
2023-05-23T00:40:58.819Z,98136.31
2023-05-23T00:42:05.545Z,98137.41
2023-05-23T00:43:08.288Z,98144.59
2023-05-23T00:44:11.287Z,98134.28
2023-05-23T00:45:16.962Z,98135.25
2023-05-23T00:46:19.807Z,98136.22
2023-05-23T00:47:23.242Z,98131.00
2023-05-23T00:48:26.859Z,98136.22
2023-05-23T00:49:28.886Z,98130.19
2023-05-23T00:50:50.482Z,98131.31
2023-05-23T00:52:11.285Z,98137.81
2023-05-23T00:53:32.661Z,98131.88
2023-05-23T00:54:53.107Z,98139.06
2023-05-23T00:56:14.742Z,98136.75
2023-05-23T00:57:40.347Z,98137.06
2023-05-23T00:59:02.103Z,98138.69
2023-05-23T01:00:24.495Z,98137.06
2023-05-23T01:01:47.646Z,98123.19
2023-05-23T01:03:18.469Z,98130.56
2023-05-23T01:04:39.420Z,98119.78
2023-05-23T01:06:00.694Z,98128.97
2023-05-23T01:07:22.325Z,98128.00
2023-05-23T01:08:25.166Z,98129.50
2023-05-23T01:09:28.833Z,98127.56
2023-05-23T01:10:32.391Z,98130.34
2023-05-23T01:11:39.057Z,98128.53
2023-05-23T01:12:47.599Z,98130.00
2023-05-23T01:13:56.389Z,98130.84
2023-05-23T01:15:03.664Z,98138.84
2023-05-23T01:16:08.332Z,98130.34
2023-05-23T01:17:16.057Z,98131.31
2023-05-23T01:18:24.964Z,98125.38
2023-05-23T01:19:53.735Z,98130.63
2023-05-23T01:20:57.265Z,98127.34
2023-05-23T01:22:02.098Z,98126.00
2023-05-23T01:23:14.234Z,98125.34
2023-05-23T01:24:36.275Z,98122.34
2023-05-23T01:25:59.651Z,98126.38
2023-05-23T01:27:10.467Z,98117.94
2023-05-23T01:28:37.073Z,98125.00
2023-05-23T01:29:59.687Z,98120.00
2023-05-23T01:31:20.487Z,98120.06
2023-05-23T01:32:42.876Z,98118.47
2023-05-23T01:34:04.638Z,98120.63
2023-05-23T01:35:27.304Z,98120.28
2023-05-23T01:36:50.348Z,98120.09
2023-05-23T01:38:11.940Z,98115.47
2023-05-23T01:39:33.957Z,98114.69
2023-05-23T01:40:54.513Z,98112.06
2023-05-23T01:42:15.899Z,98117.16
2023-05-23T01:43:29.747Z,98116.91
2023-05-23T01:44:34.138Z,98117.75
2023-05-23T01:45:36.329Z,98113.91
2023-05-23T01:46:40.189Z,98113.66
2023-05-23T01:47:42.702Z,98113.25
2023-05-23T01:48:45.990Z,98124.09
2023-05-23T01:49:48.012Z,98118.31
2023-05-23T01:50:51.833Z,98117.25
2023-05-23T01:51:57.558Z,98122.84
2023-05-23T01:53:01.614Z,98125.72
2023-05-23T01:54:03.753Z,98129.56
2023-05-23T01:55:12.695Z,98128.06
2023-05-23T01:56:14.917Z,98132.59
2023-05-23T01:57:18.008Z,98124.91
2023-05-23T01:58:22.733Z,98126.28
2023-05-23T01:59:25.632Z,98124.88
2023-05-23T02:00:31.827Z,98125.19
2023-05-23T02:01:38.686Z,98129.00
2023-05-23T02:02:40.717Z,98128.44
2023-05-23T02:03:43.907Z,98126.81
2023-05-23T02:04:45.763Z,98124.59
2023-05-23T02:05:50.815Z,98122.41
2023-05-23T02:06:53.526Z,98122.13
2023-05-23T02:07:57.014Z,98112.81
2023-05-23T02:09:17.471Z,98120.19
2023-05-23T02:10:40.127Z,98117.28
2023-05-23T02:12:01.759Z,98120.44
2023-05-23T02:13:23.344Z,98118.50
2023-05-23T02:14:43.846Z,98124.09
2023-05-23T02:16:07.600Z,98121.75
2023-05-23T02:17:27.991Z,98119.53
2023-05-23T02:18:52.805Z,98122.53
2023-05-23T02:20:14.722Z,98123.78
2023-05-23T02:21:35.845Z,98117.03
2023-05-23T02:22:58.318Z,98118.13
2023-05-23T02:24:20.879Z,98112.22
2023-05-23T02:25:43.462Z,98125.50
2023-05-23T02:27:04.248Z,98127.41
2023-05-23T02:28:25.980Z,98118.91
2023-05-23T02:29:46.543Z,98118.31
2023-05-23T02:31:09.464Z,98120.34
2023-05-23T02:32:30.223Z,98123.22
2023-05-23T02:33:51.470Z,98125.81
2023-05-23T02:35:12.600Z,98120.88
2023-05-23T02:36:34.163Z,98120.31
2023-05-23T02:37:55.543Z,98120.56
2023-05-23T02:39:15.973Z,98123.41
2023-05-23T02:40:37.315Z,98120.00
2023-05-23T02:41:58.056Z,98120.13
2023-05-23T02:43:20.346Z,98115.88
2023-05-23T02:44:40.882Z,98122.88
2023-05-23T02:46:02.464Z,98113.53
2023-05-23T02:47:05.953Z,98109.16
2023-05-23T02:48:09.797Z,98116.28
2023-05-23T02:49:11.909Z,98117.09
2023-05-23T02:50:14.787Z,98115.16
2023-05-23T02:51:18.229Z,98111.75
2023-05-23T02:52:21.117Z,98116.13
2023-05-23T02:53:22.940Z,98115.31
2023-05-23T02:54:26.111Z,98116.28
2023-05-23T02:55:28.907Z,98117.22
2023-05-23T02:56:31.839Z,98106.94
2023-05-23T02:57:33.639Z,98113.91
2023-05-23T02:58:37.000Z,98107.06
2023-05-23T02:59:38.882Z,98101.72
2023-05-23T03:00:43.988Z,98106.00
2023-05-23T03:01:45.960Z,98105.19
2023-05-23T03:02:50.368Z,98108.34
2023-05-23T03:03:52.251Z,98110.81
2023-05-23T03:04:56.127Z,98110.53
2023-05-23T03:05:59.150Z,98101.78
2023-05-23T03:07:02.448Z,98104.13
2023-05-23T03:08:06.806Z,98108.38
2023-05-23T03:09:09.730Z,98108.66
2023-05-23T03:10:12.602Z,98100.28
2023-05-23T03:11:14.742Z,98096.28
2023-05-23T03:12:20.099Z,98103.13
2023-05-23T03:13:22.323Z,98093.53
2023-05-23T03:14:25.584Z,98109.03
2023-05-23T03:15:27.476Z,98099.47
2023-05-23T03:16:30.745Z,98099.56
2023-05-23T03:17:32.703Z,98102.16
2023-05-23T03:18:36.877Z,98099.56
2023-05-23T03:19:38.808Z,98099.56
2023-05-23T03:20:42.301Z,98092.47
2023-05-23T03:21:44.372Z,98094.94
2023-05-23T03:22:47.241Z,98086.91
2023-05-23T03:23:49.316Z,98092.53
2023-05-23T03:24:52.124Z,98092.25
2023-05-23T03:25:53.986Z,98098.84
2023-05-23T03:26:57.124Z,98090.78
2023-05-23T03:27:59.033Z,98094.69
2023-05-23T03:29:01.885Z,98092.63
2023-05-23T03:30:04.014Z,98095.66
2023-05-23T03:31:06.932Z,98091.84
2023-05-23T03:32:08.908Z,98088.03
2023-05-23T03:33:12.287Z,98097.31
2023-05-23T03:34:16.350Z,98097.06
2023-05-23T03:35:19.179Z,98101.22
2023-05-23T03:36:26.044Z,98100.94
2023-05-23T03:37:27.961Z,98102.56
2023-05-23T03:38:30.762Z,98099.84
2023-05-23T03:39:32.631Z,98098.06
2023-05-23T03:40:35.424Z,98102.06
2023-05-23T03:41:37.286Z,98094.69
2023-05-23T03:42:40.761Z,98099.34
2023-05-23T03:43:44.537Z,98097.16
2023-05-23T03:44:48.261Z,98094.97
2023-05-23T03:45:50.295Z,98101.44
2023-05-23T03:46:54.097Z,98100.22
2023-05-23T03:47:56.024Z,98100.88
2023-05-23T03:48:58.905Z,98103.34
2023-05-23T03:50:03.008Z,98092.66
2023-05-23T03:51:06.558Z,98099.25
2023-05-23T03:52:08.480Z,98095.53
2023-05-23T03:53:11.431Z,98096.94
2023-05-23T03:54:13.262Z,98090.50
2023-05-23T03:55:16.495Z,98094.47
2023-05-23T03:56:18.939Z,98097.59
2023-05-23T03:57:21.801Z,98095.41
2023-05-23T03:58:25.369Z,98099.13
2023-05-23T03:59:32.732Z,98087.03
2023-05-23T04:00:35.160Z,98095.56
2023-05-23T04:01:41.001Z,98096.47
2023-05-23T04:02:43.916Z,98096.44
2023-05-23T04:03:48.147Z,98101.50
2023-05-23T04:04:51.740Z,98102.25
2023-05-23T04:05:57.815Z,98095.97
2023-05-23T04:06:59.706Z,98094.22
2023-05-23T04:08:03.252Z,98096.88
2023-05-23T04:09:06.654Z,98092.63
2023-05-23T04:10:13.706Z,98092.31
2023-05-23T04:11:16.956Z,98082.38
2023-05-23T04:12:21.913Z,98090.84
2023-05-23T04:13:42.878Z,98087.81
2023-05-23T04:15:06.335Z,98082.38
2023-05-23T04:16:33.216Z,98085.78
2023-05-23T04:17:54.389Z,98086.03
2023-05-23T04:19:16.411Z,98085.09
2023-05-23T04:20:36.990Z,98079.38
2023-05-23T04:22:00.926Z,98086.31
2023-05-23T04:23:23.206Z,98083.69
2023-05-23T04:24:47.322Z,98082.06
2023-05-23T04:26:07.971Z,98088.09
2023-05-23T04:27:34.620Z,98083.31
2023-05-23T04:28:56.440Z,98083.78
2023-05-23T04:30:18.298Z,98084.53
2023-05-23T04:31:40.060Z,98084.00
2023-05-23T04:33:00.405Z,98090.34
2023-05-23T04:34:23.438Z,98086.09
2023-05-23T04:35:44.105Z,98084.00
2023-05-23T04:37:07.466Z,98077.00
2023-05-23T04:38:28.989Z,98075.91
2023-05-23T04:39:51.038Z,98070.00
2023-05-23T04:41:23.594Z,98070.47
2023-05-23T04:43:05.774Z,98071.75
2023-05-23T04:44:32.148Z,98067.13
2023-05-23T04:46:10.099Z,98075.50
2023-05-23T04:47:36.995Z,98073.81
2023-05-23T04:49:02.230Z,98079.31
2023-05-23T04:50:23.866Z,98072.38
2023-05-23T04:51:45.762Z,98069.66
2023-05-23T04:53:14.823Z,98071.72
2023-05-23T04:54:37.407Z,98072.28
2023-05-23T04:56:00.406Z,98073.66
2023-05-23T04:57:22.093Z,98069.88
2023-05-23T04:58:44.403Z,98076.25
2023-05-23T05:00:10.344Z,98068.47
2023-05-23T05:01:32.104Z,98073.16
2023-05-23T05:02:55.352Z,98073.50
2023-05-23T05:04:20.041Z,98070.97
2023-05-23T05:05:41.563Z,98075.28
2023-05-23T05:07:04.128Z,98064.34
2023-05-23T05:08:26.938Z,98063.38
2023-05-23T05:09:48.206Z,98074.06
2023-05-23T05:11:10.072Z,98058.69
2023-05-23T05:12:31.275Z,98059.94
2023-05-23T05:13:51.671Z,98061.16
2023-05-23T05:15:14.347Z,98063.84
2023-05-23T05:16:37.782Z,98062.72
2023-05-23T05:17:59.288Z,98063.63
2023-05-23T05:19:21.737Z,98066.56
2023-05-23T05:20:43.227Z,98071.31
2023-05-23T05:22:04.970Z,98067.88
2023-05-23T05:23:29.428Z,98070.34
2023-05-23T05:24:51.924Z,98063.47
2023-05-23T05:26:13.461Z,98057.97
2023-05-23T05:27:15.378Z,98054.72
2023-05-23T05:28:18.216Z,98056.16
2023-05-23T05:29:24.455Z,98051.84
2023-05-23T05:30:28.019Z,98053.28
2023-05-23T05:31:33.622Z,98053.03
2023-05-23T05:32:36.646Z,98057.88
2023-05-23T05:33:38.590Z,98057.06
2023-05-23T05:34:49.321Z,98054.00
2023-05-23T05:35:53.448Z,98058.63
2023-05-23T05:36:56.446Z,98061.47
2023-05-23T05:38:01.206Z,98055.94
2023-05-23T05:39:06.924Z,98060.97
2023-05-23T05:40:09.901Z,98058.91
2023-05-23T05:41:17.700Z,98061.34
2023-05-23T05:42:23.470Z,98056.44
2023-05-23T05:43:27.204Z,98060.88
2023-05-23T05:44:29.165Z,98062.50
2023-05-23T05:45:31.944Z,98061.00
2023-05-23T05:46:53.578Z,98055.06
2023-05-23T05:48:15.086Z,98058.72
2023-05-23T05:49:37.742Z,98058.25
2023-05-23T05:51:01.067Z,98058.00
2023-05-23T05:52:26.141Z,98051.59
2023-05-23T05:53:47.356Z,98054.59
2023-05-23T05:55:12.330Z,98056.75
2023-05-23T05:56:36.859Z,98056.34
2023-05-23T05:57:58.842Z,98052.81
2023-05-23T05:59:22.321Z,98055.31
2023-05-23T06:00:43.821Z,98054.34
2023-05-23T06:02:05.496Z,98056.22
2023-05-23T06:03:27.413Z,98059.53
2023-05-23T06:04:49.981Z,98055.78
2023-05-23T06:06:10.541Z,98052.59
2023-05-23T06:07:15.177Z,98065.56
2023-05-23T06:08:16.981Z,98059.16
2023-05-23T06:09:19.893Z,98053.53
2023-05-23T06:10:24.575Z,98052.75
2023-05-23T06:11:27.891Z,98053.84
2023-05-23T06:12:29.761Z,98047.41
2023-05-23T06:13:32.546Z,98049.16
2023-05-23T06:14:34.373Z,98043.72
2023-05-23T06:15:38.168Z,98047.78
2023-05-23T06:16:40.072Z,98046.63
2023-05-23T06:17:44.809Z,98038.31
2023-05-23T06:18:47.822Z,98047.75
2023-05-23T06:19:50.119Z,98030.59
2023-05-23T06:20:52.971Z,98045.56
2023-05-23T06:21:56.588Z,98038.13
2023-05-23T06:23:01.776Z,98039.03
2023-05-23T06:24:03.633Z,98039.75
2023-05-23T06:25:08.231Z,98028.50
2023-05-23T06:26:30.869Z,98031.38
2023-05-23T06:27:52.031Z,98033.03
2023-05-23T06:29:14.143Z,98031.84
2023-05-23T06:30:37.506Z,98030.22
2023-05-23T06:31:59.021Z,98034.81
2023-05-23T06:33:21.175Z,98029.94
2023-05-23T06:34:43.492Z,98032.25
2023-05-23T06:36:05.442Z,98033.09
2023-05-23T06:37:26.685Z,98028.88
2023-05-23T06:38:48.795Z,98027.91
2023-05-23T06:40:10.902Z,98029.69
2023-05-23T06:41:33.682Z,98023.66
2023-05-23T06:42:48.647Z,98027.97
2023-05-23T06:43:59.430Z,98025.63
2023-05-23T06:45:06.571Z,98027.34
2023-05-23T06:46:09.457Z,98027.63
2023-05-23T06:47:11.290Z,98027.16
2023-05-23T06:48:14.120Z,98029.91
2023-05-23T06:49:16.457Z,98027.38
2023-05-23T06:50:21.030Z,98030.41
2023-05-23T06:51:25.098Z,98016.75
2023-05-23T06:52:27.010Z,98019.69
2023-05-23T06:53:29.964Z,98020.50
2023-05-23T06:54:31.775Z,98018.88
2023-05-23T06:55:34.962Z,98018.88
2023-05-23T06:56:38.370Z,98012.22
2023-05-23T06:57:41.469Z,98012.03
2023-05-23T06:58:46.518Z,98020.53
2023-05-23T06:59:50.019Z,98023.81
2023-05-23T07:00:52.145Z,98029.00
2023-05-23T07:02:03.627Z,98015.38
2023-05-23T07:03:07.098Z,98018.31
2023-05-23T07:04:12.047Z,98021.72
2023-05-23T07:05:14.431Z,98019.53
2023-05-23T07:06:22.549Z,98018.59
2023-05-23T07:07:25.820Z,98019.28
2023-05-23T07:08:32.076Z,98021.00
2023-05-23T07:09:35.617Z,98018.50
2023-05-23T07:10:46.167Z,98019.69
2023-05-23T07:12:19.302Z,98013.97
2023-05-23T07:13:23.766Z,98010.16
2023-05-23T07:14:25.663Z,98016.50
2023-05-23T07:15:28.759Z,98019.38
2023-05-23T07:16:41.481Z,98009.63
2023-05-23T07:17:44.819Z,98011.31
2023-05-23T07:18:47.999Z,98016.50
2023-05-23T07:19:50.095Z,98009.94
2023-05-23T07:20:53.539Z,98014.50
2023-05-23T07:21:57.333Z,98016.22
2023-05-23T07:22:59.238Z,98011.16
2023-05-23T07:24:02.328Z,98016.28
2023-05-23T07:25:06.118Z,98014.66
2023-05-23T07:26:11.612Z,98008.47
2023-05-23T07:27:22.002Z,98013.34
2023-05-23T07:28:24.839Z,98012.59
2023-05-23T07:29:28.744Z,98010.97
2023-05-23T07:30:33.353Z,98014.50
2023-05-23T07:31:35.737Z,98007.50
2023-05-23T07:32:38.940Z,98005.91
2023-05-23T07:33:43.478Z,98012.38
2023-05-23T07:34:49.633Z,98009.69
2023-05-23T07:35:52.838Z,98005.13
2023-05-23T07:36:54.883Z,98009.69
2023-05-23T07:37:59.941Z,98002.44
2023-05-23T07:39:03.204Z,98005.38
2023-05-23T07:40:07.926Z,98000.00
2023-05-23T07:41:11.893Z,98001.00
2023-05-23T07:42:15.946Z,98002.06
2023-05-23T07:43:20.325Z,97992.59
2023-05-23T07:44:24.831Z,97995.28
2023-05-23T07:45:28.521Z,98002.25
2023-05-23T07:46:31.166Z,98002.72
2023-05-23T07:47:34.117Z,98000.84
2023-05-23T07:48:36.102Z,98003.22
2023-05-23T07:49:40.072Z,98004.28
2023-05-23T07:50:42.172Z,98004.81
2023-05-23T07:51:45.052Z,98002.53
2023-05-23T07:52:46.940Z,97997.69
2023-05-23T07:53:52.484Z,97998.53
2023-05-23T07:54:58.248Z,97999.03
2023-05-23T07:56:02.261Z,98005.69
2023-05-23T07:57:09.604Z,97998.41
2023-05-23T07:58:11.692Z,98005.75
2023-05-23T07:59:15.877Z,97999.31
2023-05-23T08:00:20.538Z,97994.22
2023-05-23T08:01:29.452Z,98004.19
2023-05-23T08:02:37.413Z,97996.88
2023-05-23T08:03:39.437Z,98005.47
2023-05-23T08:04:49.983Z,97992.94
2023-05-23T08:05:52.018Z,97997.00
2023-05-23T08:07:04.317Z,98001.25
2023-05-23T08:08:18.524Z,97992.91
2023-05-23T08:09:21.026Z,97994.75
2023-05-23T08:10:28.342Z,97988.31
2023-05-23T08:11:34.455Z,97990.13
2023-05-23T08:12:37.344Z,97989.91
2023-05-23T08:13:48.231Z,97995.91
2023-05-23T08:15:12.748Z,97991.25
2023-05-23T08:16:27.924Z,97986.16
2023-05-23T08:17:29.948Z,97989.16
2023-05-23T08:18:33.823Z,97985.41
2023-05-23T08:19:36.711Z,97984.13
2023-05-23T08:20:38.975Z,97983.84
2023-05-23T08:21:42.497Z,97983.84
2023-05-23T08:22:45.822Z,97988.09
2023-05-23T08:23:49.106Z,97983.81
2023-05-23T08:24:51.927Z,97985.69
2023-05-23T08:25:54.968Z,97987.81
2023-05-23T08:26:57.899Z,97981.84
2023-05-23T08:28:01.371Z,97989.41
2023-05-23T08:29:18.878Z,97979.06
2023-05-23T08:30:25.364Z,97986.53
2023-05-23T08:31:27.682Z,97987.81
2023-05-23T08:32:30.701Z,97980.31
2023-05-23T08:33:33.677Z,97978.31
2023-05-23T08:34:36.543Z,97986.78
2023-05-23T08:35:58.071Z,97981.41
2023-05-23T08:37:19.666Z,97987.03
2023-05-23T08:38:41.299Z,97980.47
2023-05-23T08:40:20.645Z,97987.34
2023-05-23T08:41:50.418Z,97978.56
2023-05-23T08:43:12.422Z,97978.03
2023-05-23T08:44:33.781Z,97982.31
2023-05-23T08:45:58.541Z,97981.84
2023-05-23T08:47:22.001Z,97987.13
2023-05-23T08:48:52.620Z,97980.06
2023-05-23T08:50:16.061Z,97981.50
2023-05-23T08:51:20.515Z,97983.09
2023-05-23T08:52:27.045Z,97975.34
2023-05-23T08:53:32.199Z,97979.81
2023-05-23T08:54:41.195Z,97976.09
2023-05-23T08:55:43.285Z,97973.34
2023-05-23T08:56:47.647Z,97980.44
2023-05-23T08:57:49.699Z,97973.75
2023-05-23T08:59:04.183Z,97970.97
2023-05-23T09:00:14.914Z,97969.97
2023-05-23T09:01:20.547Z,97971.06
2023-05-23T09:02:27.309Z,97971.78
2023-05-23T09:03:39.890Z,97969.53
2023-05-23T09:04:53.481Z,97969.72
2023-05-23T09:05:58.845Z,97962.09
2023-05-23T09:07:02.296Z,97966.06
2023-05-23T09:08:06.134Z,97968.09
2023-05-23T09:09:09.433Z,97969.63
2023-05-23T09:10:12.451Z,97972.00
2023-05-23T09:11:15.853Z,97967.34
2023-05-23T09:12:22.419Z,97967.47
2023-05-23T09:13:25.832Z,97970.72
2023-05-23T09:14:31.727Z,97962.56
2023-05-23T09:16:03.882Z,97964.78
2023-05-23T09:17:19.546Z,97955.81
2023-05-23T09:18:23.134Z,97960.38
2023-05-23T09:19:24.984Z,97957.59
2023-05-23T09:20:34.885Z,97949.31
2023-05-23T09:21:45.104Z,97949.38
2023-05-23T09:22:53.237Z,97952.47
2023-05-23T09:23:55.985Z,97955.78
2023-05-23T09:24:59.276Z,97961.63
2023-05-23T09:26:03.332Z,97958.47
2023-05-23T09:27:08.023Z,97960.63
2023-05-23T09:28:15.056Z,97952.31
2023-05-23T09:29:39.530Z,97959.03
2023-05-23T09:30:42.546Z,97959.56
2023-05-23T09:31:44.463Z,97952.66
2023-05-23T09:33:03.936Z,97955.88
2023-05-23T09:34:10.852Z,97954.31
2023-05-23T09:35:14.510Z,97951.13
2023-05-23T09:36:18.402Z,97957.31
2023-05-23T09:37:20.260Z,97958.72
2023-05-23T09:38:23.180Z,97956.97
2023-05-23T09:39:27.129Z,97947.25
2023-05-23T09:40:32.970Z,97947.69
2023-05-23T09:41:37.267Z,97950.47
2023-05-23T09:42:42.159Z,97940.91
2023-05-23T09:43:51.204Z,97948.56
2023-05-23T09:44:54.002Z,97944.97
2023-05-23T09:45:57.012Z,97941.34
2023-05-23T09:47:00.529Z,97941.25
2023-05-23T09:48:04.075Z,97947.63
2023-05-23T09:49:17.850Z,97943.50
2023-05-23T09:50:21.568Z,97941.72
2023-05-23T09:51:25.038Z,97940.44
2023-05-23T09:52:26.988Z,97928.69
2023-05-23T09:53:29.947Z,97935.41
2023-05-23T09:54:32.757Z,97935.94
2023-05-23T09:55:34.608Z,97934.84
2023-05-23T09:56:41.694Z,97944.06
2023-05-23T09:57:45.801Z,97933.16
2023-05-23T09:58:50.065Z,97935.78
2023-05-23T09:59:54.683Z,97934.47
2023-05-23T10:00:58.185Z,97930.16
2023-05-23T10:02:02.272Z,97932.19
2023-05-23T10:03:11.487Z,97935.84
2023-05-23T10:04:16.060Z,97929.00
2023-05-23T10:05:29.299Z,97929.81
2023-05-23T10:06:43.900Z,97935.22
2023-05-23T10:07:46.254Z,97934.44
2023-05-23T10:08:53.922Z,97935.94
2023-05-23T10:10:01.313Z,97936.47
2023-05-23T10:11:51.840Z,97936.16
2023-05-23T10:12:56.974Z,97936.06
2023-05-23T10:13:59.712Z,97927.81
2023-05-23T10:15:04.120Z,97929.94
2023-05-23T10:16:13.433Z,97929.47
2023-05-23T10:17:20.591Z,97930.06
2023-05-23T10:18:27.910Z,97923.06
2023-05-23T10:19:35.579Z,97918.34
2023-05-23T10:20:41.187Z,97925.56
2023-05-23T10:21:46.486Z,97922.06
2023-05-23T10:22:49.902Z,97931.78
2023-05-23T10:23:51.991Z,97928.13
2023-05-23T10:24:54.972Z,97924.53
2023-05-23T10:25:57.851Z,97917.09
2023-05-23T10:26:59.968Z,97911.84
2023-05-23T10:28:04.307Z,97921.34
2023-05-23T10:29:07.047Z,97917.94
2023-05-23T10:30:11.296Z,97924.34
2023-05-23T10:31:13.230Z,97922.44
2023-05-23T10:32:16.951Z,97920.22
2023-05-23T10:33:20.352Z,97914.78
2023-05-23T10:34:28.406Z,97915.56
2023-05-23T10:35:44.050Z,97915.03
2023-05-23T10:36:55.783Z,97912.22
2023-05-23T10:38:03.106Z,97913.59
2023-05-23T10:39:10.240Z,97913.63
2023-05-23T10:40:18.175Z,97901.91
2023-05-23T10:41:24.050Z,97909.19
2023-05-23T10:42:35.472Z,97910.28
2023-05-23T10:43:44.110Z,97909.50
2023-05-23T10:44:46.944Z,97911.75
2023-05-23T10:45:50.672Z,97911.22
2023-05-23T10:46:54.881Z,97914.72
2023-05-23T10:47:57.900Z,97916.88
2023-05-23T10:49:01.426Z,97921.84
2023-05-23T10:50:05.398Z,97917.06
2023-05-23T10:51:08.857Z,97914.84
2023-05-23T10:52:12.369Z,97915.59
2023-05-23T10:53:17.809Z,97912.75
2023-05-23T10:54:20.247Z,97916.19
2023-05-23T10:55:23.304Z,97914.13
2023-05-23T10:56:25.862Z,97916.34
2023-05-23T10:57:28.902Z,97913.38
2023-05-23T10:58:31.954Z,97916.03
2023-05-23T10:59:35.275Z,97910.91
2023-05-23T11:00:37.201Z,97907.31
2023-05-23T11:01:42.916Z,97909.88
2023-05-23T11:02:55.479Z,97899.47
2023-05-23T11:03:58.730Z,97905.47
2023-05-23T11:05:22.195Z,97905.03
2023-05-23T11:06:32.020Z,97901.88
2023-05-23T11:07:34.867Z,97901.66
2023-05-23T11:08:46.972Z,97894.41
2023-05-23T11:10:10.924Z,97894.03
2023-05-23T11:11:13.824Z,97901.84
2023-05-23T11:12:16.602Z,97898.03
2023-05-23T11:13:19.101Z,97896.94
2023-05-23T11:14:32.136Z,97894.22
2023-05-23T11:15:45.057Z,97890.72
2023-05-23T11:16:49.167Z,97887.88
2023-05-23T11:17:53.758Z,97892.50
2023-05-23T11:19:25.980Z,97887.16
2023-05-23T11:20:31.662Z,97880.75
2023-05-23T11:21:33.583Z,97883.25
2023-05-23T11:22:36.989Z,97878.19
2023-05-23T11:23:42.873Z,97878.84
2023-05-23T11:24:50.023Z,97882.84
2023-05-23T11:25:53.964Z,97879.63
2023-05-23T11:27:00.457Z,97876.53
2023-05-23T11:28:05.466Z,97876.47
2023-05-23T11:29:09.394Z,97883.19
2023-05-23T11:30:14.671Z,97879.56
2023-05-23T11:31:17.737Z,97863.50
2023-05-23T11:32:19.794Z,97867.34
2023-05-23T11:33:22.727Z,97864.06
2023-05-23T11:34:25.931Z,97862.94
2023-05-23T11:35:31.638Z,97870.66
2023-05-23T11:36:33.837Z,97868.28
2023-05-23T11:37:37.189Z,97865.50
2023-05-23T11:38:39.006Z,97864.22
2023-05-23T11:39:41.876Z,97860.16
2023-05-23T11:40:45.680Z,97866.16
2023-05-23T11:41:55.243Z,97861.97
2023-05-23T11:42:58.598Z,97869.47
2023-05-23T11:44:01.591Z,97858.75
2023-05-23T11:45:04.946Z,97866.69
2023-05-23T11:46:10.838Z,97862.09
2023-05-23T11:47:12.728Z,97858.22
2023-05-23T11:48:16.708Z,97862.75
2023-05-23T11:49:18.656Z,97865.44
2023-05-23T11:50:21.517Z,97859.22
2023-05-23T11:51:24.715Z,97861.09
2023-05-23T11:52:33.488Z,97864.56
2023-05-23T11:53:36.393Z,97867.84
2023-05-23T11:54:40.586Z,97860.31
2023-05-23T11:55:49.832Z,97862.13
2023-05-23T11:56:51.787Z,97858.66
2023-05-23T11:57:57.188Z,97856.28
2023-05-23T11:58:59.110Z,97863.00
2023-05-23T12:00:01.862Z,97861.34
2023-05-23T12:01:06.486Z,97865.56
2023-05-23T12:02:29.416Z,97857.44
2023-05-23T12:03:52.589Z,97857.75
2023-05-23T12:05:15.550Z,97863.56
2023-05-23T12:06:40.353Z,97859.09
2023-05-23T12:08:02.111Z,97858.44
2023-05-23T12:09:22.740Z,97860.59
2023-05-23T12:10:51.342Z,97859.19
2023-05-23T12:12:13.731Z,97861.50
2023-05-23T12:13:34.978Z,97857.63
2023-05-23T12:14:57.421Z,97855.00
2023-05-23T12:16:18.745Z,97852.31
2023-05-23T12:17:40.742Z,97846.72
2023-05-23T12:19:03.301Z,97858.47
2023-05-23T12:20:25.279Z,97852.72
2023-05-23T12:21:49.013Z,97858.91
2023-05-23T12:22:50.890Z,97865.63
2023-05-23T12:23:53.807Z,97864.91
2023-05-23T12:24:57.008Z,97860.69
2023-05-23T12:25:58.871Z,97860.59
2023-05-23T12:27:03.522Z,97856.22
2023-05-23T12:28:06.022Z,97856.00
2023-05-23T12:29:08.802Z,97850.06
2023-05-23T12:30:12.882Z,97849.28
2023-05-23T12:31:19.155Z,97847.41
2023-05-23T12:32:24.897Z,97844.22
2023-05-23T12:33:27.708Z,97840.69
2023-05-23T12:34:30.939Z,97839.69
2023-05-23T12:35:32.857Z,97841.00
2023-05-23T12:36:47.949Z,97834.88
2023-05-23T12:37:54.795Z,97840.38
2023-05-23T12:39:02.454Z,97835.56
2023-05-23T12:40:15.927Z,97840.50
2023-05-23T12:41:19.924Z,97832.63
2023-05-23T12:42:22.955Z,97837.81
2023-05-23T12:43:24.752Z,97836.19
2023-05-23T12:44:47.117Z,97845.00
2023-05-23T12:46:09.340Z,97840.88
2023-05-23T12:47:13.225Z,97845.19
2023-05-23T12:48:16.803Z,97839.28
2023-05-23T12:49:19.960Z,97843.75
2023-05-23T12:50:22.929Z,97844.34
2023-05-23T12:51:24.725Z,97834.69
2023-05-23T12:52:27.550Z,97838.16
2023-05-23T12:53:32.275Z,97842.13
2023-05-23T12:54:34.115Z,97842.34
2023-05-23T12:55:36.930Z,97836.59
2023-05-23T12:56:38.827Z,97845.47
2023-05-23T12:57:41.594Z,97837.28
2023-05-23T12:58:43.845Z,97838.91
2023-05-23T12:59:50.412Z,97846.06
2023-05-23T13:00:52.377Z,97839.72
2023-05-23T13:01:55.897Z,97850.38
2023-05-23T13:02:58.749Z,97856.69
2023-05-23T13:04:04.602Z,97860.81
2023-05-23T13:05:26.815Z,97879.56
2023-05-23T13:06:48.114Z,97877.63
2023-05-23T13:08:09.771Z,97873.03
2023-05-23T13:09:12.948Z,97880.91
2023-05-23T13:10:16.077Z,97891.63
2023-05-23T13:11:19.005Z,97879.16
2023-05-23T13:12:21.074Z,97897.69
2023-05-23T13:13:24.208Z,97905.47
2023-05-23T13:14:27.657Z,97897.19
2023-05-23T13:15:29.539Z,97899.34
2023-05-23T13:16:33.062Z,97907.16
2023-05-23T13:17:35.114Z,97914.03
2023-05-23T13:18:37.951Z,97909.72
2023-05-23T13:19:39.804Z,97916.38
2023-05-23T13:20:42.620Z,97915.84
2023-05-23T13:21:46.661Z,97906.16
2023-05-23T13:22:54.240Z,97904.94
2023-05-23T13:23:56.994Z,97905.31
2023-05-23T13:25:00.246Z,97902.53
2023-05-23T13:26:03.090Z,97907.38
2023-05-23T13:27:05.401Z,97908.09
2023-05-23T13:28:08.420Z,97919.75
2023-05-23T13:29:11.252Z,97914.53
2023-05-23T13:30:13.266Z,97915.44
2023-05-23T13:31:16.574Z,97910.00
2023-05-23T13:32:18.698Z,97905.94
2023-05-23T13:33:23.077Z,97908.59
2023-05-23T13:34:25.254Z,97909.44
2023-05-23T13:35:28.054Z,97905.78
2023-05-23T13:36:29.891Z,97913.63